weather.gov     
National Weather Service

Terminal Aerodrome Forecast
NWS Homepage
This page is being discontinued on March 12, 2014.
The same data is available at this site. Please update your bookmarks.
Thank you, and we apologize for the inconvenience.
Please send an email to SR-SRH.Webmaster@noaa.gov with any concerns.


Current Version
Previous Version:    01  02  03  04  05  06  07  08  09  10  11  12  13  14  15  16  17  18  19  20  21  22  23  24  25  26  27  28  29  30  
   31  
[Printable]
966
FTUS43 KGID 171722
TAFGRI
TAF
KGRI 171722Z 1718/1818 09008KT P6SM SKC
     FM180700 10008KT P6SM SCT007 BKN015
     FM180900 11006KT 5SM BR SCT002 OVC009
     FM181100 11008KT 2SM BR OVC004
      TEMPO 1811/1815 1/2SM FG OVC003
     FM181600 13013KT P6SM SCT010 BKN020=




966
FTUS43 KGID 171722
TAFGRI
TAF
KGRI 171722Z 1718/1818 09008KT P6SM SKC
     FM180700 10008KT P6SM SCT007 BKN015
     FM180900 11006KT 5SM BR SCT002 OVC009
     FM181100 11008KT 2SM BR OVC004
      TEMPO 1811/1815 1/2SM FG OVC003
     FM181600 13013KT P6SM SCT010 BKN020=


U.S. Dept. of Commerce
NOAA National Weather Service
1325 East West Highway
Silver Spring, MD 20910
E-mail: w-nws.webmaster@noaa.gov
Page last modified: May 16, 2007
NATIONAL WEATHER SERVICE: for Safety, for Work, for Fun - FOR LIFE